Terminal Aerodrome Forecast
Issued by NWS Pueblo, CO

Home | Current Version | Previous Version | Text Only | Print | Product List | Glossary On
Versions: 1 2 3 4 5 6 7 8 9 10 11 12 13 14 15 16 17 18 19 20 21 22
000
FTUS45 KPUB 261928 CCA
TAFCOS
TAF COR
KCOS 261928Z 2619/2718 05010KT P6SM VCTS SCT025CB BKN045
      TEMPO 2619/2621 VRB20G35KT 3SM -TSRAGS BKN025CB
     FM262100 03020G40KT 3SM TSRA BKN030CB
     FM270000 01015G25KT P6SM VCSH BKN030
     FM270400 34012KT 5SM -RA BR BKN030
     FM270700 34015G30KT 2SM -RA BR OVC025
     FM271500 35020G40KT P6SM -SHRA SCT015 BKN030=

USA.gov is the U.S. government's official web portal to all federal, state and local government web resources and services.